createdAt,value
2023-05-23T00:01:24.960Z,33.67
2023-05-23T00:03:56.005Z,33.53
2023-05-23T00:06:24.224Z,35.00
2023-05-23T00:08:52.240Z,32.50
2023-05-23T00:11:20.488Z,35.77
2023-05-23T00:13:48.292Z,33.73
2023-05-23T00:16:16.428Z,36.10
2023-05-23T00:18:46.014Z,37.43
2023-05-23T00:21:14.595Z,36.90
2023-05-23T00:23:43.350Z,36.90
2023-05-23T00:26:11.145Z,38.40
2023-05-23T00:28:39.295Z,37.30
2023-05-23T00:31:07.387Z,36.17
2023-05-23T00:33:36.370Z,36.83
2023-05-23T00:36:06.158Z,37.73
2023-05-23T00:38:33.967Z,35.67
2023-05-23T00:41:02.736Z,35.80
2023-05-23T00:43:30.588Z,34.90
2023-05-23T00:45:58.483Z,35.17
2023-05-23T00:48:26.926Z,34.93
2023-05-23T00:50:55.328Z,32.43
2023-05-23T00:53:24.526Z,31.87
2023-05-23T00:55:52.387Z,31.70
2023-05-23T00:58:20.225Z,30.47
2023-05-23T01:00:50.417Z,30.40
2023-05-23T01:03:19.080Z,29.90
2023-05-23T01:05:46.926Z,28.70
2023-05-23T01:08:15.922Z,28.07
2023-05-23T01:10:45.245Z,26.43
2023-05-23T01:13:22.652Z,26.07
2023-05-23T01:16:03.324Z,25.77
2023-05-23T01:18:35.550Z,26.20
2023-05-23T01:21:08.292Z,24.33
2023-05-23T01:24:06.071Z,23.43
2023-05-23T01:26:45.794Z,22.37
2023-05-23T01:29:16.449Z,23.30
2023-05-23T01:31:45.688Z,22.23
2023-05-23T01:34:14.352Z,21.87
2023-05-23T01:36:43.875Z,22.20
2023-05-23T01:39:12.066Z,20.80
2023-05-23T01:41:39.893Z,19.87
2023-05-23T01:44:07.914Z,18.80
2023-05-23T01:46:39.243Z,18.00
2023-05-23T01:49:09.784Z,18.43
2023-05-23T01:51:37.813Z,19.53
2023-05-23T01:54:05.862Z,19.00
2023-05-23T01:56:33.893Z,19.10
2023-05-23T01:59:02.062Z,19.90
2023-05-23T02:01:29.982Z,18.53
2023-05-23T02:03:59.139Z,19.47
2023-05-23T02:06:26.925Z,20.77
2023-05-23T02:08:54.689Z,19.27
2023-05-23T02:11:22.648Z,20.97
2023-05-23T02:13:50.502Z,20.23
2023-05-23T02:16:18.670Z,19.27
2023-05-23T02:18:47.077Z,19.77
2023-05-23T02:21:16.350Z,20.93
2023-05-23T02:23:44.222Z,19.90
2023-05-23T02:26:12.115Z,20.90
2023-05-23T02:28:39.918Z,19.63
2023-05-23T02:31:07.825Z,20.43
2023-05-23T02:33:35.738Z,21.13
2023-05-23T02:36:03.772Z,20.03
2023-05-23T02:38:32.978Z,21.03
2023-05-23T02:41:00.927Z,21.73
2023-05-23T02:43:29.170Z,21.17
2023-05-23T02:45:56.985Z,20.13
2023-05-23T02:48:24.877Z,19.77
2023-05-23T02:50:52.856Z,21.47
2023-05-23T02:53:20.752Z,21.50
2023-05-23T02:55:49.932Z,21.73
2023-05-23T02:58:17.750Z,22.00
2023-05-23T03:00:45.566Z,22.53
2023-05-23T03:03:13.619Z,24.13
2023-05-23T03:05:42.399Z,24.83
2023-05-23T03:08:10.937Z,24.67
2023-05-23T03:10:39.000Z,25.33
2023-05-23T03:13:08.602Z,26.20
2023-05-23T03:15:36.593Z,27.07
2023-05-23T03:18:04.844Z,26.53
2023-05-23T03:20:32.947Z,26.23
2023-05-23T03:23:01.011Z,24.97
2023-05-23T03:25:29.036Z,27.67
2023-05-23T03:27:57.138Z,26.73
2023-05-23T03:30:26.584Z,26.13
2023-05-23T03:32:54.632Z,27.00
2023-05-23T03:35:22.702Z,26.87
2023-05-23T03:37:50.803Z,23.97
2023-05-23T03:40:18.836Z,24.70
2023-05-23T03:42:49.163Z,23.37
2023-05-23T03:45:18.530Z,22.23
2023-05-23T03:47:48.077Z,20.33
2023-05-23T03:50:16.141Z,20.73
2023-05-23T03:52:44.227Z,22.80
2023-05-23T03:55:12.607Z,21.00
2023-05-23T03:57:40.688Z,18.00
2023-05-23T04:00:12.345Z,16.80
2023-05-23T04:02:41.030Z,14.80
2023-05-23T04:05:11.116Z,14.67
2023-05-23T04:07:39.281Z,12.47
2023-05-23T04:10:08.735Z,11.27
2023-05-23T04:12:36.822Z,11.13
2023-05-23T04:15:05.428Z,10.97
2023-05-23T04:17:33.649Z,11.13
2023-05-23T04:20:01.857Z,10.73
2023-05-23T04:22:31.115Z,11.20
2023-05-23T04:24:58.985Z,11.23
2023-05-23T04:27:26.792Z,10.40
2023-05-23T04:29:56.487Z,11.20
2023-05-23T04:32:24.428Z,10.47
2023-05-23T04:34:52.291Z,10.47
2023-05-23T04:37:22.206Z,11.50
2023-05-23T04:39:51.418Z,11.73
2023-05-23T04:42:24.540Z,11.07
2023-05-23T04:44:53.209Z,11.70
2023-05-23T04:47:21.051Z,12.13
2023-05-23T04:49:49.054Z,11.00
2023-05-23T04:52:19.125Z,10.73
2023-05-23T04:54:48.901Z,10.20
2023-05-23T04:57:18.338Z,10.57
2023-05-23T04:59:46.627Z,10.10
2023-05-23T05:02:14.472Z,10.27
2023-05-23T05:04:42.297Z,9.37
2023-05-23T05:07:10.118Z,9.07
2023-05-23T05:09:38.189Z,9.17
2023-05-23T05:12:06.231Z,7.90
2023-05-23T05:14:35.514Z,8.67
2023-05-23T05:17:04.139Z,8.43
2023-05-23T05:19:32.217Z,7.90
2023-05-23T05:22:00.287Z,9.30
2023-05-23T05:24:29.085Z,8.80
2023-05-23T05:26:57.463Z,9.70
2023-05-23T05:29:25.363Z,9.60
2023-05-23T05:31:54.688Z,9.77
2023-05-23T05:34:23.397Z,11.83
2023-05-23T05:36:55.922Z,10.27
2023-05-23T05:39:25.588Z,10.30
2023-05-23T05:41:53.381Z,11.40
2023-05-23T05:44:21.223Z,10.50
2023-05-23T05:46:49.633Z,10.47
2023-05-23T05:49:18.820Z,10.53
2023-05-23T05:51:46.650Z,10.30
2023-05-23T05:54:14.509Z,9.30
2023-05-23T05:56:43.155Z,9.37
2023-05-23T05:59:11.140Z,9.43
2023-05-23T06:01:39.060Z,8.90
2023-05-23T06:04:07.024Z,9.20
2023-05-23T06:06:36.407Z,8.70
2023-05-23T06:09:04.395Z,8.40
2023-05-23T06:11:32.625Z,9.10
2023-05-23T06:14:00.636Z,7.93
2023-05-23T06:16:28.667Z,8.20
2023-05-23T06:18:59.793Z,8.37
2023-05-23T06:21:27.863Z,7.80
2023-05-23T06:23:57.579Z,7.83
2023-05-23T06:26:26.314Z,8.23
2023-05-23T06:28:54.267Z,7.73
2023-05-23T06:31:22.157Z,7.70
2023-05-23T06:33:50.080Z,7.53
2023-05-23T06:36:17.983Z,7.43
2023-05-23T06:38:45.841Z,7.77
2023-05-23T06:41:15.067Z,7.23
2023-05-23T06:43:45.884Z,7.53
2023-05-23T06:46:13.739Z,6.73
2023-05-23T06:48:41.967Z,7.93
2023-05-23T06:51:10.556Z,7.27
2023-05-23T06:53:38.467Z,7.70
2023-05-23T06:56:06.699Z,7.13
2023-05-23T06:58:35.997Z,7.53
2023-05-23T07:01:03.786Z,6.70
2023-05-23T07:03:31.669Z,6.33
2023-05-23T07:05:59.533Z,6.80
2023-05-23T07:08:27.415Z,6.53
2023-05-23T07:10:55.214Z,5.77
2023-05-23T07:13:23.137Z,6.07
2023-05-23T07:15:52.289Z,5.27
2023-05-23T07:18:20.108Z,5.27
2023-05-23T07:20:47.897Z,5.07
2023-05-23T07:23:17.245Z,5.27
2023-05-23T07:26:00.533Z,5.53
2023-05-23T07:28:30.480Z,5.27
2023-05-23T07:30:59.788Z,5.67
2023-05-23T07:33:27.647Z,5.67
2023-05-23T07:35:55.557Z,6.10
2023-05-23T07:38:23.390Z,6.00
2023-05-23T07:41:02.580Z,6.10
2023-05-23T07:43:38.263Z,5.23
2023-05-23T07:46:07.836Z,6.23
2023-05-23T07:48:35.890Z,6.50
2023-05-23T07:51:04.029Z,5.83
2023-05-23T07:53:31.861Z,6.33
2023-05-23T07:55:59.655Z,5.90
2023-05-23T07:58:27.447Z,6.07
2023-05-23T08:00:55.257Z,6.10
2023-05-23T08:03:24.555Z,6.20
2023-05-23T08:05:52.516Z,5.43
2023-05-23T08:08:20.358Z,5.53
2023-05-23T08:10:48.319Z,5.50
2023-05-23T08:13:16.456Z,5.57
2023-05-23T08:15:45.565Z,5.77
2023-05-23T08:18:14.076Z,5.73
2023-05-23T08:20:56.912Z,5.77
2023-05-23T08:23:24.778Z,5.77
2023-05-23T08:25:53.631Z,5.60
2023-05-23T08:28:21.537Z,5.67
2023-05-23T08:30:49.620Z,5.57
2023-05-23T08:33:17.440Z,5.40
2023-05-23T08:35:45.299Z,4.97
2023-05-23T08:38:14.487Z,5.97
2023-05-23T08:40:42.860Z,5.60
2023-05-23T08:43:12.493Z,5.47
2023-05-23T08:45:40.819Z,5.20
2023-05-23T08:48:10.025Z,4.80
2023-05-23T08:50:39.438Z,4.80
2023-05-23T08:53:08.657Z,4.67
2023-05-23T08:55:39.405Z,4.60
2023-05-23T08:58:07.631Z,4.67
2023-05-23T09:00:36.095Z,5.47
2023-05-23T09:03:04.067Z,4.97
2023-05-23T09:05:32.062Z,5.57
2023-05-23T09:08:00.051Z,6.30
2023-05-23T09:10:29.971Z,5.90
2023-05-23T09:12:59.257Z,6.53
2023-05-23T09:15:27.516Z,5.20
2023-05-23T09:17:55.441Z,6.30
2023-05-23T09:20:23.367Z,7.07
2023-05-23T09:22:51.150Z,6.20
2023-05-23T09:25:19.043Z,7.10
2023-05-23T09:27:48.363Z,7.97
2023-05-23T09:30:19.105Z,7.57
2023-05-23T09:33:01.242Z,7.80
2023-05-23T09:35:31.083Z,7.70
2023-05-23T09:38:00.325Z,7.10
2023-05-23T09:40:33.086Z,7.33
2023-05-23T09:43:04.083Z,7.53
2023-05-23T09:45:34.281Z,7.60
2023-05-23T09:48:02.719Z,7.23
2023-05-23T09:50:33.547Z,7.80
2023-05-23T09:53:01.789Z,7.87
2023-05-23T09:55:29.700Z,8.10
2023-05-23T09:58:00.350Z,8.30
2023-05-23T10:00:28.587Z,8.50
2023-05-23T10:03:08.510Z,7.80
2023-05-23T10:05:38.124Z,7.87
2023-05-23T10:08:10.766Z,7.53
2023-05-23T10:11:17.107Z,7.57
2023-05-23T10:13:46.244Z,8.40
2023-05-23T10:16:18.340Z,8.20
2023-05-23T10:18:50.648Z,8.30
2023-05-23T10:21:20.950Z,9.83
2023-05-23T10:23:49.204Z,8.53
2023-05-23T10:26:17.511Z,8.57
2023-05-23T10:28:45.460Z,8.93
2023-05-23T10:31:13.931Z,9.80
2023-05-23T10:33:44.098Z,9.93
2023-05-23T10:36:19.486Z,9.77
2023-05-23T10:38:52.187Z,9.27
2023-05-23T10:41:25.175Z,9.67
2023-05-23T10:43:57.864Z,10.60
2023-05-23T10:46:53.058Z,11.40
2023-05-23T10:49:21.314Z,11.10
2023-05-23T10:51:52.301Z,10.00
2023-05-23T10:54:21.192Z,10.17
2023-05-23T10:56:49.698Z,9.80
2023-05-23T10:59:28.922Z,10.70
2023-05-23T11:01:57.065Z,8.97
2023-05-23T11:04:28.696Z,8.60
2023-05-23T11:06:58.157Z,8.60
2023-05-23T11:09:26.160Z,8.57
2023-05-23T11:12:00.807Z,8.47
2023-05-23T11:14:54.838Z,8.50
2023-05-23T11:17:34.120Z,7.50
2023-05-23T11:20:06.548Z,8.80
2023-05-23T11:22:36.161Z,8.10
2023-05-23T11:25:08.928Z,8.00
2023-05-23T11:27:38.963Z,8.20
2023-05-23T11:30:09.508Z,7.90
2023-05-23T11:32:38.326Z,8.33
2023-05-23T11:35:07.699Z,7.43
2023-05-23T11:37:37.261Z,7.73
2023-05-23T11:40:26.912Z,7.47
2023-05-23T11:42:54.968Z,7.50
2023-05-23T11:45:23.642Z,7.37
2023-05-23T11:47:51.506Z,6.20
2023-05-23T11:50:20.517Z,6.30
2023-05-23T11:52:52.373Z,5.77
2023-05-23T11:55:21.178Z,5.23
2023-05-23T11:57:49.170Z,5.77
2023-05-23T12:00:18.086Z,5.50
2023-05-23T12:02:47.736Z,5.17
2023-05-23T12:05:16.379Z,6.13
2023-05-23T12:07:45.407Z,5.30
2023-05-23T12:10:16.414Z,6.13
2023-05-23T12:12:44.547Z,6.27
2023-05-23T12:15:13.661Z,5.57
2023-05-23T12:17:46.004Z,5.43
2023-05-23T12:20:14.225Z,6.27
2023-05-23T12:22:43.097Z,6.60
2023-05-23T12:25:11.682Z,6.77
2023-05-23T12:27:44.070Z,6.20
2023-05-23T12:30:14.716Z,6.60
2023-05-23T12:32:43.527Z,6.83
2023-05-23T12:35:13.195Z,6.50
2023-05-23T12:37:43.053Z,7.03
2023-05-23T12:40:13.050Z,6.73
2023-05-23T12:42:52.632Z,6.53
2023-05-23T12:45:20.680Z,7.33
2023-05-23T12:47:49.134Z,7.30
2023-05-23T12:50:18.532Z,7.07
2023-05-23T12:52:46.366Z,7.73
2023-05-23T12:55:14.534Z,6.90
2023-05-23T12:57:42.345Z,6.60
2023-05-23T13:00:12.922Z,7.97
2023-05-23T13:02:40.869Z,7.50
2023-05-23T13:05:09.455Z,6.87
2023-05-23T13:07:38.017Z,8.07
2023-05-23T13:10:06.665Z,7.07
2023-05-23T13:12:34.819Z,7.43
2023-05-23T13:15:02.689Z,7.97
2023-05-23T13:17:32.038Z,6.90
2023-05-23T13:19:59.920Z,6.20
2023-05-23T13:22:27.776Z,6.30
2023-05-23T13:24:55.615Z,6.03
2023-05-23T13:27:23.455Z,6.20
2023-05-23T13:29:51.296Z,5.90
2023-05-23T13:32:19.201Z,6.90
2023-05-23T13:34:48.447Z,7.17
2023-05-23T13:37:16.300Z,7.07
2023-05-23T13:39:44.085Z,7.40
2023-05-23T13:42:12.404Z,8.73
2023-05-23T13:44:40.209Z,10.53
2023-05-23T13:47:13.229Z,10.43
2023-05-23T13:49:41.534Z,11.50
2023-05-23T13:52:10.778Z,13.23
2023-05-23T13:54:38.607Z,12.27
2023-05-23T13:57:07.104Z,12.03
2023-05-23T13:59:35.033Z,12.60
2023-05-23T14:02:02.865Z,13.07
2023-05-23T14:04:30.789Z,13.53
2023-05-23T14:06:58.580Z,12.90
2023-05-23T14:09:27.768Z,14.30
2023-05-23T14:11:55.730Z,14.23
2023-05-23T14:14:23.797Z,15.50
2023-05-23T14:16:52.110Z,15.80
2023-05-23T14:19:20.264Z,15.73
2023-05-23T14:21:48.117Z,16.37
2023-05-23T14:24:16.002Z,15.70
2023-05-23T14:26:45.189Z,14.83
2023-05-23T14:29:13.009Z,15.37
2023-05-23T14:31:40.936Z,14.30
2023-05-23T14:34:08.896Z,13.40
2023-05-23T14:36:37.081Z,13.23
2023-05-23T14:39:05.993Z,12.40
2023-05-23T14:41:34.701Z,11.23
2023-05-23T14:44:04.635Z,11.23
2023-05-23T14:46:32.607Z,10.83
2023-05-23T14:49:00.413Z,10.13
2023-05-23T14:51:42.916Z,9.37
2023-05-23T14:54:13.042Z,8.10
2023-05-23T14:56:41.235Z,8.70
2023-05-23T14:59:11.092Z,7.20
2023-05-23T15:01:40.487Z,8.43
2023-05-23T15:04:09.682Z,7.10
2023-05-23T15:06:38.385Z,7.07
2023-05-23T15:09:06.419Z,6.83
2023-05-23T15:11:34.993Z,6.00
2023-05-23T15:14:02.999Z,6.93
2023-05-23T15:16:33.433Z,7.07
2023-05-23T15:19:01.495Z,7.50
2023-05-23T15:21:29.486Z,4.97
2023-05-23T15:23:57.807Z,5.43
2023-05-23T15:26:26.824Z,5.33
2023-05-23T15:28:54.611Z,5.87
2023-05-23T15:31:22.721Z,5.03
2023-05-23T15:33:52.049Z,4.70
2023-05-23T15:36:19.934Z,5.43
2023-05-23T15:38:47.754Z,6.40
2023-05-23T15:41:15.558Z,5.40
2023-05-23T15:43:43.320Z,5.87
2023-05-23T15:46:11.313Z,5.50
2023-05-23T15:48:39.183Z,6.97
2023-05-23T15:51:08.412Z,6.70
2023-05-23T15:53:47.851Z,6.10
2023-05-23T15:56:24.028Z,6.37
2023-05-23T15:58:51.813Z,5.80
2023-05-23T16:01:19.770Z,6.20
2023-05-23T16:03:48.596Z,6.33
2023-05-23T16:06:18.038Z,5.60
2023-05-23T16:08:45.893Z,6.27
2023-05-23T16:11:13.674Z,6.40
2023-05-23T16:13:41.486Z,7.10
2023-05-23T16:16:09.326Z,6.23
2023-05-23T16:18:37.251Z,6.10
2023-05-23T16:21:05.690Z,6.43
2023-05-23T16:23:34.874Z,6.73
2023-05-23T16:26:02.843Z,6.13
2023-05-23T16:28:30.643Z,7.93
2023-05-23T16:30:58.483Z,7.00
2023-05-23T16:33:26.319Z,7.60
2023-05-23T16:35:54.063Z,6.70
2023-05-23T16:38:21.829Z,7.30
2023-05-23T16:40:50.985Z,7.17
2023-05-23T16:43:18.759Z,6.43
2023-05-23T16:45:46.872Z,6.60
2023-05-23T16:48:15.111Z,5.90
2023-05-23T16:50:43.031Z,5.90
2023-05-23T16:53:11.142Z,6.20
2023-05-23T16:55:39.177Z,5.90
2023-05-23T16:58:08.367Z,5.70
2023-05-23T17:00:36.194Z,5.07
2023-05-23T17:03:04.214Z,5.67
2023-05-23T17:05:32.038Z,5.10
2023-05-23T17:07:59.892Z,5.07
2023-05-23T17:10:27.698Z,5.27
2023-05-23T17:12:55.692Z,6.27
2023-05-23T17:15:25.616Z,5.30
2023-05-23T17:17:53.465Z,5.50
2023-05-23T17:20:24.044Z,5.40
2023-05-23T17:22:51.989Z,5.73
2023-05-23T17:25:19.776Z,4.57
2023-05-23T17:27:47.530Z,5.30
2023-05-23T17:30:18.473Z,4.83
2023-05-23T17:32:47.935Z,5.07
2023-05-23T17:35:15.906Z,4.60
2023-05-23T17:37:45.096Z,4.73
2023-05-23T17:40:13.965Z,4.80
2023-05-23T17:42:42.582Z,5.00
2023-05-23T17:45:11.209Z,4.87
2023-05-23T17:47:39.348Z,4.90
2023-05-23T17:50:09.825Z,4.20
2023-05-23T17:52:37.829Z,5.23
2023-05-23T17:55:06.433Z,5.30
2023-05-23T17:57:34.297Z,4.10
2023-05-23T18:00:02.115Z,4.80
2023-05-23T18:02:29.925Z,4.70
2023-05-23T18:04:57.703Z,4.47
2023-05-23T18:07:26.921Z,4.50
2023-05-23T18:09:54.793Z,5.03
2023-05-23T18:12:22.725Z,5.07
2023-05-23T18:14:52.168Z,4.27
2023-05-23T18:17:20.185Z,4.70
2023-05-23T18:19:48.072Z,4.93
2023-05-23T18:22:16.656Z,4.70
2023-05-23T18:24:45.974Z,4.53
2023-05-23T18:27:13.938Z,4.70
2023-05-23T18:29:41.780Z,4.63
2023-05-23T18:32:09.736Z,4.40
2023-05-23T18:34:39.375Z,4.27
2023-05-23T18:37:07.315Z,5.10
2023-05-23T18:39:35.118Z,4.53
2023-05-23T18:42:04.316Z,4.60
2023-05-23T18:44:32.058Z,5.10
2023-05-23T18:46:59.987Z,4.53
2023-05-23T18:49:27.846Z,4.43
2023-05-23T18:51:55.825Z,5.10
2023-05-23T18:54:23.634Z,5.10
2023-05-23T18:56:51.626Z,4.90
2023-05-23T18:59:20.914Z,5.10
2023-05-23T19:01:48.886Z,5.03
2023-05-23T19:04:17.405Z,5.27
2023-05-23T19:06:46.347Z,5.57
2023-05-23T19:09:14.192Z,5.00
2023-05-23T19:11:42.027Z,5.00
2023-05-23T19:14:09.967Z,4.77
2023-05-23T19:16:40.017Z,4.20
2023-05-23T19:19:07.851Z,5.33
2023-05-23T19:21:35.698Z,4.60
2023-05-23T19:24:07.331Z,4.97
2023-05-23T19:26:35.250Z,4.17
2023-05-23T19:29:03.405Z,4.40
2023-05-23T19:31:31.661Z,4.47
2023-05-23T19:34:00.948Z,4.90
2023-05-23T19:36:28.744Z,4.50
2023-05-23T19:38:56.678Z,3.93
2023-05-23T19:41:24.483Z,4.93
2023-05-23T19:43:52.363Z,4.37
2023-05-23T19:46:20.337Z,4.13
2023-05-23T19:48:48.778Z,4.73
2023-05-23T19:51:17.906Z,4.77
2023-05-23T19:53:45.739Z,4.13
2023-05-23T19:56:13.860Z,4.90
2023-05-23T19:58:41.731Z,4.40
2023-05-23T20:01:09.570Z,5.17
2023-05-23T20:03:37.669Z,5.37
2023-05-23T20:06:05.929Z,5.03
2023-05-23T20:08:35.217Z,4.57
2023-05-23T20:11:03.050Z,5.10
2023-05-23T20:13:31.119Z,4.40
2023-05-23T20:15:59.143Z,5.30
2023-05-23T20:18:27.902Z,5.17
2023-05-23T20:20:56.156Z,4.83
2023-05-23T20:23:24.679Z,6.87
2023-05-23T20:25:54.593Z,4.77
2023-05-23T20:28:24.461Z,4.53
2023-05-23T20:30:52.721Z,4.57
2023-05-23T20:33:20.827Z,3.77
2023-05-23T20:35:49.753Z,4.27
2023-05-23T20:38:18.559Z,4.43
2023-05-23T20:40:49.579Z,4.07
2023-05-23T20:43:22.266Z,4.10
2023-05-23T20:45:50.526Z,4.37
2023-05-23T20:48:18.351Z,4.50
2023-05-23T20:50:46.324Z,4.30
2023-05-23T20:53:14.073Z,4.37
2023-05-23T20:55:42.538Z,4.10
2023-05-23T20:58:10.504Z,3.87
2023-05-23T21:00:39.838Z,4.00
2023-05-23T21:03:07.907Z,4.43
2023-05-23T21:05:35.924Z,4.07
2023-05-23T21:08:04.486Z,4.10
2023-05-23T21:10:32.874Z,4.23
2023-05-23T21:13:00.706Z,6.53
2023-05-23T21:15:28.686Z,4.47
2023-05-23T21:17:57.997Z,4.40
2023-05-23T21:20:25.816Z,4.13
2023-05-23T21:22:53.750Z,11.47
2023-05-23T21:25:21.866Z,5.00
2023-05-23T21:27:50.044Z,4.73
2023-05-23T21:30:17.922Z,6.07
2023-05-23T21:32:46.438Z,4.73
2023-05-23T21:35:15.917Z,5.00
2023-05-23T21:37:43.711Z,5.57
2023-05-23T21:40:11.858Z,4.77
2023-05-23T21:42:40.216Z,5.60
2023-05-23T21:45:09.157Z,3.57
2023-05-23T21:47:37.007Z,4.20
2023-05-23T21:50:05.220Z,3.83
2023-05-23T21:52:34.718Z,4.93
2023-05-23T21:55:03.051Z,4.10
2023-05-23T21:57:34.140Z,4.33
2023-05-23T22:00:02.300Z,3.97
2023-05-23T22:02:30.574Z,3.90
2023-05-23T22:04:58.871Z,4.40
2023-05-23T22:07:27.039Z,4.23
2023-05-23T22:09:56.546Z,3.83
2023-05-23T22:12:25.480Z,4.00
2023-05-23T22:14:53.636Z,3.77
2023-05-23T22:17:22.917Z,3.80
2023-05-23T22:19:52.054Z,3.37
2023-05-23T22:22:20.080Z,3.60
2023-05-23T22:24:47.889Z,3.67
2023-05-23T22:27:17.056Z,3.40
2023-05-23T22:29:44.872Z,4.03
2023-05-23T22:32:12.630Z,3.63
2023-05-23T22:34:40.440Z,3.43
2023-05-23T22:37:08.230Z,3.53
2023-05-23T22:39:36.067Z,3.97
2023-05-23T22:42:04.363Z,3.20
2023-05-23T22:44:33.543Z,3.23
2023-05-23T22:47:03.771Z,16.07
2023-05-23T22:49:32.086Z,79.83
2023-05-23T22:51:59.938Z,19.20
2023-05-23T22:54:27.743Z,6.70
2023-05-23T22:56:55.871Z,3.90
2023-05-23T22:59:23.670Z,3.63
2023-05-23T23:01:52.844Z,4.17
2023-05-23T23:04:23.566Z,4.50
2023-05-23T23:06:53.979Z,3.87
2023-05-23T23:09:21.825Z,4.67
2023-05-23T23:11:49.626Z,4.23
2023-05-23T23:14:17.359Z,4.63
2023-05-23T23:16:46.341Z,3.90
2023-05-23T23:19:16.751Z,4.40
2023-05-23T23:21:44.722Z,3.43
2023-05-23T23:24:13.633Z,3.50
2023-05-23T23:26:41.611Z,3.87
2023-05-23T23:29:09.433Z,3.70
2023-05-23T23:34:25.142Z,3.93
2023-05-23T23:36:52.972Z,4.53
2023-05-23T23:39:21.138Z,3.63
2023-05-23T23:41:49.171Z,3.57
2023-05-23T23:44:17.096Z,3.77
2023-05-23T23:46:45.337Z,3.63
2023-05-23T23:49:15.464Z,3.87
2023-05-23T23:51:44.799Z,3.00
2023-05-23T23:54:12.621Z,3.40
2023-05-23T23:56:40.620Z,3.77
2023-05-23T23:59:08.832Z,3.77
